Time;durP1;ratioP1;P1;durP2;ratioP2;P2;SDS_P1;SDS_P2;PMS_P1;PMS_P2;Temp;Humidity;BMP_temperature;BMP_pressure;BME280_temperature;BME280_humidity;BME280_pressure;Samples;Min_cycle;Max_cycle;Signal;HPM_P1;HPM_P2
2022/06/09 00:01:19;;;;;;;1.33;0.60;;;;;;;14.46;100.00;97565.06;5033643;28;20197;-69
2022/06/09 00:04:07;;;;;;;0.63;0.60;;;;;;;14.59;100.00;97553.09;5030805;28;20213;-69
2022/06/09 00:10:03;;;;;;;1.10;0.70;;;;;;;14.55;100.00;97562.69;5021434;28;20704;-69
2022/06/09 00:12:30;;;;;;;1.17;0.50;;;;;;;14.58;100.00;97562.19;5009324;28;20209;-69
2022/06/09 00:14:57;;;;;;;0.60;0.60;;;;;;;14.59;100.00;97569.97;5033435;28;20691;-69
2022/06/09 00:17:27;;;;;;;0.97;0.60;;;;;;;14.56;100.00;97570.47;5033345;28;20256;-69
2022/06/09 00:20:05;;;;;;;0.50;0.50;;;;;;;14.59;100.00;97579.84;5032518;28;20206;-69
2022/06/09 00:22:33;;;;;;;1.40;0.80;;;;;;;14.67;100.00;97574.03;5033024;28;20576;-69
2022/06/09 00:25:00;;;;;;;0.90;0.70;;;;;;;14.72;100.00;97585.59;5033280;28;20624;-69
2022/06/09 00:27:26;;;;;;;1.60;0.70;;;;;;;14.81;99.65;97584.06;5033293;28;20615;-69
2022/06/09 00:29:56;;;;;;;0.67;0.67;;;;;;;14.77;98.45;97580.28;5033067;28;20760;-68
2022/06/09 00:32:28;;;;;;;0.60;0.60;;;;;;;14.78;99.18;97579.22;5033444;28;20639;-69
2022/06/09 00:34:54;;;;;;;0.80;0.80;;;;;;;14.81;98.97;97592.09;5034010;28;20285;-68
2022/06/09 00:40:12;;;;;;;0.53;0.53;;;;;;;14.73;99.09;97592.56;5014876;28;20601;-69
2022/06/09 00:42:48;;;;;;;1.37;0.70;;;;;;;14.69;99.24;97599.47;5032909;28;20292;-69
2022/06/09 00:45:50;;;;;;;0.50;0.50;;;;;;;14.75;100.00;97609.16;5033264;28;20209;-69
2022/06/09 00:48:58;;;;;;;0.70;0.70;;;;;;;14.70;100.00;97598.41;5033169;28;20236;-69
2022/06/09 00:51:58;;;;;;;1.17;0.60;;;;;;;14.76;100.00;97593.91;5033125;28;20548;-69
2022/06/09 00:54:48;;;;;;;0.60;0.60;;;;;;;14.71;99.92;97586.66;5032901;28;20236;-69
2022/06/09 00:57:35;;;;;;;0.77;0.40;;;;;;;14.70;100.00;97589.59;5032808;28;20225;-69
2022/06/09 01:00:45;;;;;;;0.60;0.60;;;;;;;14.69;100.00;97582.59;5033179;28;20186;-69
2022/06/09 01:03:35;;;;;;;0.50;0.50;;;;;;;14.59;100.00;97586.03;5031637;28;20202;-68
2022/06/09 01:06:32;;;;;;;0.50;0.50;;;;;;;14.54;100.00;97585.97;5034923;28;20221;-68
2022/06/09 01:09:23;;;;;;;0.53;0.50;;;;;;;14.44;100.00;97590.44;5036160;28;20250;-68
2022/06/09 01:11:58;;;;;;;1.93;0.60;;;;;;;14.37;100.00;97585.28;5035633;28;20194;-68
2022/06/09 01:14:30;;;;;;;1.10;0.50;;;;;;;14.29;100.00;97583.06;5036378;28;20270;-68
2022/06/09 01:17:20;;;;;;;0.53;0.53;;;;;;;14.31;100.00;97594.34;5036331;28;20268;-68
2022/06/09 01:20:39;;;;;;;2.00;0.50;;;;;;;14.24;100.00;97591.06;5036189;28;20196;-68
2022/06/09 01:23:42;;;;;;;0.47;0.47;;;;;;;14.17;100.00;97585.09;5036282;28;20591;-68
2022/06/09 01:26:16;;;;;;;0.80;0.50;;;;;;;14.05;100.00;97589.75;5036207;28;20205;-68
2022/06/09 01:29:01;;;;;;;1.90;0.63;;;;;;;14.11;100.00;97596.78;5035612;28;20261;-68
2022/06/09 01:35:19;;;;;;;;;;;;;;;;;;;;;
2022/06/09 01:38:08;;;;;;;4.60;0.50;;;;;;;13.87;100.00;97591.97;5034477;28;20238;-69
2022/06/09 01:40:34;;;;;;;0.50;0.50;;;;;;;13.78;100.00;97599.63;5035879;28;20640;-68
2022/06/09 01:43:02;;;;;;;0.63;0.50;;;;;;;13.85;100.00;97591.41;5035745;28;20304;-68
2022/06/09 01:49:20;;;;;;;1.23;1.03;;;;;;;13.84;100.00;97595.94;4994334;28;20226;-68
2022/06/09 01:54:45;;;;;;;0.77;0.50;;;;;;;13.86;100.00;97603.72;5012570;28;20221;-68
2022/06/09 01:57:20;;;;;;;1.63;0.90;;;;;;;13.79;100.00;97601.22;5032991;28;20228;-69
2022/06/09 02:02:58;;;;;;;0.83;0.80;;;;;;;13.78;100.00;97601.47;5032876;28;20266;-68
2022/06/09 02:05:52;;;;;;;1.70;1.20;;;;;;;13.78;100.00;97598.81;5036538;28;20262;-68
2022/06/09 02:08:29;;;;;;;1.00;0.90;;;;;;;13.78;100.00;97596.94;5030009;28;20260;-68
2022/06/09 02:11:16;;;;;;;2.47;0.80;;;;;;;13.78;100.00;97601.47;5035267;28;20198;-68
2022/06/09 02:13:58;;;;;;;1.77;0.70;;;;;;;13.73;100.00;97598.75;5035595;28;20210;-68
2022/06/09 02:16:33;;;;;;;2.73;1.27;;;;;;;13.79;100.00;97603.13;5034666;28;20598;-68
2022/06/09 02:19:05;;;;;;;1.90;0.90;;;;;;;13.70;100.00;97604.59;5034265;28;20225;-68
2022/06/09 02:24:16;;;;;;;1.20;1.07;;;;;;;13.69;100.00;97611.81;5034040;28;20220;-68
2022/06/09 02:26:46;;;;;;;1.50;0.90;;;;;;;13.68;100.00;97609.38;5034913;28;20208;-68
2022/06/09 02:29:21;;;;;;;1.47;0.90;;;;;;;13.67;100.00;97608.59;5035159;28;20233;-69
2022/06/09 02:34:42;;;;;;;1.67;1.10;;;;;;;13.68;100.00;97612.88;5034548;28;20202;-68
2022/06/09 02:37:21;;;;;;;2.67;1.20;;;;;;;13.63;100.00;97623.50;5035012;28;20220;-69
2022/06/09 02:39:49;;;;;;;1.57;1.10;;;;;;;13.63;100.00;97620.81;5034674;28;20243;-68
2022/06/09 02:42:19;;;;;;;3.77;1.07;;;;;;;13.59;100.00;97622.38;5034947;28;20213;-69
2022/06/09 02:44:48;;;;;;;1.83;1.10;;;;;;;13.68;100.00;97623.56;5034762;28;20299;-68
2022/06/09 02:47:29;;;;;;;1.77;1.20;;;;;;;13.63;100.00;97618.16;5034856;28;20214;-68
2022/06/09 02:50:08;;;;;;;2.63;1.00;;;;;;;13.60;100.00;97615.97;5034890;28;20197;-68
2022/06/09 02:52:55;;;;;;;1.93;1.10;;;;;;;13.48;100.00;97614.47;5033516;28;20736;-68
2022/06/09 02:55:25;;;;;;;1.50;1.10;;;;;;;13.60;100.00;97617.81;5034445;28;20648;-68
2022/06/09 02:58:12;;;;;;;2.03;0.97;;;;;;;13.54;100.00;97622.31;5034477;28;20316;-68
2022/06/09 03:01:01;;;;;;;;;;;;;;;;;;;;;
2022/06/09 03:03:53;;;;;;;1.97;1.20;;;;;;;13.54;100.00;97634.84;5028791;28;20698;-68
2022/06/09 03:06:29;;;;;;;4.17;1.17;;;;;;;13.52;100.00;97639.63;5034346;28;20237;-68
2022/06/09 03:09:24;;;;;;;1.47;1.10;;;;;;;13.51;100.00;97636.16;5034386;28;20314;-68
2022/06/09 03:11:52;;;;;;;3.20;1.30;;;;;;;13.58;100.00;97642.13;5034409;28;20191;-68
2022/06/09 03:14:18;;;;;;;2.07;1.30;;;;;;;13.54;100.00;97638.34;5032526;28;20214;-68
2022/06/09 03:16:51;;;;;;;3.17;1.10;;;;;;;13.60;100.00;97648.03;5033816;28;20790;-68
2022/06/09 03:19:22;;;;;;;3.03;1.30;;;;;;;13.53;100.00;97644.75;5034002;28;20241;-68
2022/06/09 03:22:17;;;;;;;2.03;1.20;;;;;;;13.59;100.00;97645.59;5033973;28;20217;-68
2022/06/09 03:24:56;;;;;;;1.30;1.20;;;;;;;13.64;100.00;97643.81;5030061;28;20222;-68
2022/06/09 03:27:23;;;;;;;1.50;1.00;;;;;;;13.72;100.00;97643.38;5032814;28;20205;-69
2022/06/09 03:29:49;;;;;;;1.63;1.37;;;;;;;13.75;100.00;97650.09;5033769;28;20299;-68
2022/06/09 03:35:01;;;;;;;1.27;1.17;;;;;;;13.70;100.00;97650.81;5027008;28;20247;-68
2022/06/09 03:40:29;;;;;;;1.93;1.20;;;;;;;13.67;100.00;97651.31;5034232;28;20208;-68
2022/06/09 03:43:07;;;;;;;1.40;1.30;;;;;;;13.70;100.00;97656.16;5033646;28;20199;-68
2022/06/09 03:45:51;;;;;;;1.60;1.50;;;;;;;13.68;100.00;97655.59;5033303;28;20200;-68
2022/06/09 03:48:20;;;;;;;4.20;1.40;;;;;;;13.67;100.00;97666.53;5033572;28;20626;-68
2022/06/09 03:50:49;;;;;;;2.47;1.53;;;;;;;13.65;100.00;97664.09;5032560;28;20244;-69
2022/06/09 03:53:23;;;;;;;2.37;1.47;;;;;;;13.69;100.00;97667.91;5033391;28;20247;-68
2022/06/09 03:55:50;;;;;;;2.50;1.40;;;;;;;13.71;100.00;97668.44;5033554;28;20189;-67
2022/06/09 03:58:19;;;;;;;1.80;1.20;;;;;;;13.82;100.00;97672.88;5033440;28;20317;-68
2022/06/09 04:00:57;;;;;;;4.50;1.60;;;;;;;13.71;100.00;97676.47;5033547;28;20244;-68
2022/06/09 04:06:45;;;;;;;3.03;1.40;;;;;;;13.63;100.00;97687.59;5021733;28;20676;-68
2022/06/09 04:09:19;;;;;;;1.93;1.43;;;;;;;13.66;100.00;97686.28;5021355;28;20232;-68
2022/06/09 04:11:45;;;;;;;4.00;1.67;;;;;;;13.69;100.00;97689.28;5033311;28;20562;-69
2022/06/09 04:14:15;;;;;;;3.10;1.90;;;;;;;13.68;100.00;97687.66;5033349;28;20240;-68
2022/06/09 04:16:48;;;;;;;4.33;1.80;;;;;;;13.71;100.00;97687.16;5033225;28;20304;-68
2022/06/09 04:19:27;;;;;;;3.73;1.93;;;;;;;13.74;100.00;97693.88;5033275;28;20244;-69
2022/06/09 04:22:07;;;;;;;3.70;1.67;;;;;;;13.71;100.00;97689.03;5032959;28;20193;-68
2022/06/09 04:24:34;;;;;;;4.47;1.50;;;;;;;13.72;100.00;97690.63;5032862;28;20656;-68
2022/06/09 04:27:01;;;;;;;5.53;1.60;;;;;;;13.74;100.00;97689.34;5032725;28;20202;-68
2022/06/09 04:29:30;;;;;;;2.57;1.40;;;;;;;13.71;100.00;97695.16;5032513;28;20252;-68
2022/06/09 04:31:56;;;;;;;7.13;1.60;;;;;;;13.69;100.00;97701.81;5033070;28;20296;-68
2022/06/09 04:34:28;;;;;;;3.07;1.40;;;;;;;13.78;100.00;97694.97;5033158;28;20320;-68
2022/06/09 04:36:54;;;;;;;3.90;1.50;;;;;;;13.79;100.00;97702.75;5032675;28;20203;-68
2022/06/09 04:39:27;;;;;;;3.40;1.70;;;;;;;13.70;100.00;97714.94;5034111;28;20229;-68
2022/06/09 04:41:59;;;;;;;2.93;1.60;;;;;;;13.70;100.00;97720.28;5036780;28;20196;-68
2022/06/09 04:44:27;;;;;;;3.20;1.57;;;;;;;13.66;100.00;97719.13;5036735;28;20196;-68
2022/06/09 04:47:00;;;;;;;3.63;1.23;;;;;;;13.68;100.00;97729.59;5036604;28;20220;-68
2022/06/09 04:49:48;;;;;;;3.70;1.50;;;;;;;13.75;100.00;97732.91;5036152;28;20229;-68
2022/06/09 04:52:36;;;;;;;5.23;1.60;;;;;;;13.64;100.00;97726.59;5026649;28;20220;-68
2022/06/09 04:55:09;;;;;;;2.17;1.30;;;;;;;13.64;100.00;97723.13;5036001;28;20220;-69
2022/06/09 04:57:36;;;;;;;2.70;1.33;;;;;;;13.59;100.00;97731.06;5036736;28;20260;-69
2022/06/09 05:03:11;;;;;;;6.00;1.50;;;;;;;13.53;100.00;97746.22;5034048;28;20205;-69
2022/06/09 05:05:41;;;;;;;2.87;1.40;;;;;;;13.68;100.00;97749.09;5035946;28;20280;-69
2022/06/09 05:08:14;;;;;;;3.63;1.27;;;;;;;13.70;100.00;97749.66;5035593;28;20534;-69
2022/06/09 05:10:43;;;;;;;4.57;1.60;;;;;;;13.74;100.00;97753.47;5034559;28;20668;-69
2022/06/09 05:13:11;;;;;;;5.40;1.70;;;;;;;13.69;100.00;97750.72;5035898;28;20212;-69
2022/06/09 05:15:48;;;;;;;3.33;1.50;;;;;;;13.77;100.00;97758.31;5036575;28;20259;-68
2022/06/09 05:18:29;;;;;;;3.37;1.40;;;;;;;13.66;100.00;97751.19;5036276;28;20261;-69
2022/06/09 05:21:03;;;;;;;3.40;1.30;;;;;;;13.59;100.00;97766.59;5035605;28;20277;-69
2022/06/09 05:23:41;;;;;;;5.93;1.40;;;;;;;13.67;100.00;97768.88;5035421;28;20599;-68
2022/06/09 05:26:09;;;;;;;2.50;1.47;;;;;;;13.84;100.00;97768.84;5035295;28;20251;-69
2022/06/09 05:28:38;;;;;;;5.47;1.50;;;;;;;14.03;100.00;97773.66;5035466;28;20275;-68
2022/06/09 05:31:08;;;;;;;3.80;1.50;;;;;;;14.27;100.00;97764.34;5035909;28;20212;-68
2022/06/09 05:33:38;;;;;;;3.93;1.37;;;;;;;14.32;99.41;97766.28;5035843;28;20209;-69
2022/06/09 05:36:05;;;;;;;4.93;1.33;;;;;;;14.34;96.81;97764.97;5035520;28;20707;-69
2022/06/09 05:46:58;;;;;;;3.87;1.50;;;;;;;14.50;94.36;97780.13;5035417;28;20177;-69
2022/06/09 05:49:34;;;;;;;2.47;1.60;;;;;;;14.71;92.65;97787.34;5035129;28;20261;-68
2022/06/09 05:52:01;;;;;;;3.30;1.37;;;;;;;14.65;91.73;97795.56;5034347;28;20235;-68
2022/06/09 05:54:31;;;;;;;2.67;1.30;;;;;;;14.89;94.03;97795.03;5035175;28;20691;-68
2022/06/09 05:57:01;;;;;;;2.87;1.33;;;;;;;14.83;90.22;97804.03;5034760;28;20264;-68
2022/06/09 05:59:34;;;;;;;4.53;1.70;;;;;;;14.94;87.49;97802.28;5034685;28;20324;-68
2022/06/09 06:02:01;;;;;;;1.87;1.20;;;;;;;15.05;92.39;97798.63;5035222;28;20201;-69
2022/06/09 06:04:37;;;;;;;4.87;1.50;;;;;;;14.95;89.96;97804.72;5035021;28;20209;-68
2022/06/09 06:07:04;;;;;;;2.43;1.60;;;;;;;15.05;93.88;97804.00;5034823;28;20206;-68
2022/06/09 06:09:32;;;;;;;4.40;1.30;;;;;;;15.13;87.35;97812.41;5035116;28;20227;-69
2022/06/09 06:11:59;;;;;;;4.43;1.33;;;;;;;15.18;85.04;97825.00;5034672;28;20206;-68
2022/06/09 06:14:35;;;;;;;4.10;1.23;;;;;;;15.13;85.33;97817.75;5034782;28;20585;-69
2022/06/09 06:17:11;;;;;;;3.43;1.40;;;;;;;15.30;87.12;97823.81;5034748;28;20288;-69
2022/06/09 06:19:44;;;;;;;4.40;1.50;;;;;;;15.40;84.92;97828.47;5034550;28;20280;-68
2022/06/09 06:22:14;;;;;;;3.80;1.50;;;;;;;15.58;86.00;97825.41;5034859;28;20652;-68
2022/06/09 06:24:44;;;;;;;3.70;1.60;;;;;;;15.56;85.78;97831.00;5034531;28;20214;-68
2022/06/09 06:27:13;;;;;;;4.03;1.33;;;;;;;15.48;83.36;97828.00;5035314;28;20210;-69
2022/06/09 06:29:40;;;;;;;4.33;1.70;;;;;;;15.45;82.51;97820.47;5034495;28;20751;-68
2022/06/09 06:35:10;;;;;;;5.73;1.40;;;;;;;15.63;81.51;97828.94;5031830;28;20212;-69
2022/06/09 06:37:42;;;;;;;5.03;1.73;;;;;;;15.83;79.56;97831.75;5033868;28;20218;-71
2022/06/09 06:40:20;;;;;;;6.80;1.80;;;;;;;15.82;79.81;97840.06;5034200;28;20193;-70
2022/06/09 06:42:49;;;;;;;7.13;1.60;;;;;;;16.03;81.18;97841.81;5034384;28;20247;-70
2022/06/09 06:45:16;;;;;;;6.83;2.00;;;;;;;16.10;78.81;97845.88;5034086;28;20218;-70
2022/06/09 06:47:43;;;;;;;3.50;1.40;;;;;;;16.15;79.12;97853.97;5034230;28;20336;-70
2022/06/09 06:50:31;;;;;;;8.03;1.70;;;;;;;16.15;76.74;97848.59;5034385;28;20216;-70
2022/06/09 06:53:02;;;;;;;3.03;1.40;;;;;;;16.07;80.20;97862.50;5034104;28;20296;-70
2022/06/09 06:55:33;;;;;;;4.73;1.60;;;;;;;16.13;77.35;97866.84;5032665;28;20549;-70
2022/06/09 06:58:03;;;;;;;8.53;3.60;;;;;;;16.20;75.56;97862.03;5032670;28;20230;-70
2022/06/09 07:00:29;;;;;;;2.73;1.33;;;;;;;16.21;80.30;97868.22;5033623;28;20744;-70
2022/06/09 07:06:43;;;;;;;6.13;1.60;;;;;;;16.20;75.00;97874.66;5012500;28;20585;-70
2022/06/09 07:12:24;;;;;;;4.50;1.43;;;;;;;16.33;79.33;97875.00;5005248;28;20198;-71
2022/06/09 07:18:53;;;;;;;;;;;;;;;;;;;;;
2022/06/09 07:21:23;;;;;;;5.50;1.57;;;;;;;16.28;78.01;97880.34;4911003;28;20236;-68
2022/06/09 07:23:56;;;;;;;3.43;1.40;;;;;;;16.27;72.96;97886.78;5013835;28;20305;-69
2022/06/09 07:26:31;;;;;;;4.70;2.40;;;;;;;16.44;72.76;97889.31;5014178;28;20207;-69
2022/06/09 07:31:44;;;;;;;5.17;2.10;;;;;;;16.31;73.69;97901.28;5013500;28;20214;-70
2022/06/09 07:34:10;;;;;;;5.83;2.40;;;;;;;16.29;71.90;97902.59;5013688;28;20211;-70
2022/06/09 07:36:37;;;;;;;5.50;2.50;;;;;;;16.40;75.80;97897.06;5013687;28;20211;-70
2022/06/09 07:39:04;;;;;;;7.20;2.10;;;;;;;16.43;72.99;97898.44;5013608;28;20265;-70
2022/06/09 07:41:31;;;;;;;7.17;2.90;;;;;;;16.41;73.00;97890.63;5013705;28;20289;-70
2022/06/09 07:44:00;;;;;;;6.53;2.57;;;;;;;16.12;71.87;97902.78;5013464;28;20202;-71
2022/06/09 07:46:26;;;;;;;4.93;2.10;;;;;;;16.29;73.01;97902.59;5014567;28;20329;-70
2022/06/09 07:48:54;;;;;;;9.17;2.10;;;;;;;16.41;71.51;97897.88;5014120;28;20227;-70
2022/06/09 07:51:20;;;;;;;5.23;1.93;;;;;;;16.68;69.15;97902.06;5013093;28;20665;-70
2022/06/09 07:53:47;;;;;;;8.53;3.33;;;;;;;16.65;68.78;97907.94;5013647;28;20293;-70
2022/06/09 07:56:15;;;;;;;4.73;2.13;;;;;;;16.46;68.01;97912.13;5013615;28;20202;-70
2022/06/09 07:58:42;;;;;;;4.93;1.40;;;;;;;16.71;68.11;97904.22;5013078;28;20690;-70
2022/06/09 08:01:08;;;;;;;5.67;1.70;;;;;;;16.93;67.53;97912.94;5013552;28;20202;-70
2022/06/09 08:03:35;;;;;;;4.63;2.23;;;;;;;16.77;66.75;97903.19;5013178;28;20241;-69
2022/06/09 08:06:01;;;;;;;6.07;1.87;;;;;;;16.81;65.87;97911.50;5013430;28;20297;-70
2022/06/09 08:08:28;;;;;;;8.87;2.00;;;;;;;16.93;66.38;97910.25;5013418;28;20328;-70
2022/06/09 08:10:54;;;;;;;6.33;2.57;;;;;;;16.73;64.89;97910.13;5013735;28;20313;-70
2022/06/09 08:13:21;;;;;;;4.23;1.57;;;;;;;17.06;65.14;97898.97;5013859;28;20255;-69
2022/06/09 08:15:47;;;;;;;7.53;2.80;;;;;;;17.24;65.07;97911.16;5012978;28;20609;-70
2022/06/09 08:18:13;;;;;;;7.77;2.50;;;;;;;17.05;63.66;97908.13;5012775;28;20316;-70
2022/06/09 08:20:42;;;;;;;8.20;1.90;;;;;;;17.20;63.86;97910.06;5013384;28;20646;-69
2022/06/09 08:23:18;;;;;;;4.97;1.50;;;;;;;17.18;64.52;97913.00;5013451;28;20213;-70
2022/06/09 08:25:47;;;;;;;2.93;1.37;;;;;;;17.14;63.32;97925.34;5013163;28;20657;-70
2022/06/09 08:28:18;;;;;;;6.83;1.57;;;;;;;17.21;61.68;97920.53;5013254;28;20229;-69
2022/06/09 08:30:46;;;;;;;3.60;1.53;;;;;;;17.63;62.73;97915.81;5012880;28;20193;-69
2022/06/09 08:33:13;;;;;;;4.27;2.20;;;;;;;17.60;62.19;97926.31;5013404;28;20206;-70
2022/06/09 08:35:39;;;;;;;4.80;1.30;;;;;;;17.76;61.39;97923.38;5013850;28;20632;-69
2022/06/09 08:38:07;;;;;;;8.40;1.60;;;;;;;17.68;62.52;97929.28;5012779;28;20593;-70
2022/06/09 08:40:59;;;;;;;6.17;1.13;;;;;;;17.88;63.18;97923.09;5013045;28;20203;-70
2022/06/09 08:43:34;;;;;;;3.90;1.10;;;;;;;17.37;61.00;97935.63;4992316;28;20291;-70
2022/06/09 08:46:23;;;;;;;3.83;1.37;;;;;;;17.29;65.01;97935.34;5011505;28;20198;-70
2022/06/09 08:48:50;;;;;;;3.50;1.33;;;;;;;17.55;61.25;97939.75;5012107;28;20227;-70
2022/06/09 08:51:25;;;;;;;4.67;1.37;;;;;;;17.55;62.29;97943.22;5012971;28;20580;-70
2022/06/09 08:53:59;;;;;;;4.40;1.80;;;;;;;17.37;62.65;97950.97;5013114;28;20281;-70
2022/06/09 08:56:29;;;;;;;4.37;1.40;;;;;;;17.22;64.46;97943.66;5012814;28;20253;-70
2022/06/09 08:59:00;;;;;;;2.57;1.13;;;;;;;17.32;60.77;97945.56;5012816;28;20779;-70
2022/06/09 09:01:47;;;;;;;6.13;1.60;;;;;;;17.62;63.14;97938.41;5013407;28;20561;-70
2022/06/09 09:04:22;;;;;;;5.20;1.53;;;;;;;17.39;60.44;97943.41;5012837;28;20226;-70
2022/06/09 09:06:56;;;;;;;3.40;1.50;;;;;;;17.61;62.44;97958.31;5013574;28;20201;-70
2022/06/09 09:09:30;;;;;;;7.50;1.30;;;;;;;17.76;58.72;97952.94;5012420;28;20242;-70
2022/06/09 09:12:36;;;;;;;3.50;1.30;;;;;;;17.67;61.56;97957.25;5012568;28;20285;-71
2022/06/09 09:15:17;;;;;;;4.57;1.23;;;;;;;17.75;58.97;97959.41;5012821;28;20279;-70
2022/06/09 09:18:11;;;;;;;7.20;1.70;;;;;;;17.79;58.52;97967.75;5012377;28;20276;-70
2022/06/09 09:20:58;;;;;;;3.47;1.50;;;;;;;18.08;58.74;97966.16;5012488;28;20657;-70
2022/06/09 09:23:37;;;;;;;5.87;1.40;;;;;;;18.20;58.25;97954.06;5011535;28;20195;-70
2022/06/09 09:26:18;;;;;;;4.47;1.47;;;;;;;18.12;59.23;97954.59;5013186;28;20708;-70
2022/06/09 09:28:58;;;;;;;2.87;1.10;;;;;;;18.10;59.17;97958.63;5015872;28;20222;-70
2022/06/09 09:31:40;;;;;;;4.43;1.37;;;;;;;17.93;63.29;97966.16;5016336;28;20224;-70
2022/06/09 09:34:06;;;;;;;4.67;1.40;;;;;;;18.04;63.46;97955.13;5016217;28;20599;-71
2022/06/09 09:36:36;;;;;;;4.57;1.50;;;;;;;17.83;59.96;97966.94;5015806;28;20301;-70
2022/06/09 09:39:24;;;;;;;7.70;1.60;;;;;;;18.31;59.57;97971.81;5015681;28;20317;-70
2022/06/09 09:42:08;;;;;;;4.70;1.00;;;;;;;17.74;59.60;97973.13;5015231;28;20634;-70
2022/06/09 09:44:35;;;;;;;6.03;1.40;;;;;;;17.68;59.49;97964.22;5015294;28;20591;-70
2022/06/09 09:47:03;;;;;;;6.17;1.60;;;;;;;18.10;58.22;97974.78;5015664;28;20699;-70
2022/06/09 09:49:42;;;;;;;4.33;1.27;;;;;;;18.28;57.65;97976.94;5014945;28;20665;-71
2022/06/09 09:52:32;;;;;;;7.30;4.87;;;;;;;18.73;57.10;97975.00;5013969;28;20191;-71
2022/06/09 09:54:59;;;;;;;22.40;17.50;;;;;;;19.08;59.23;97966.84;5015818;28;20246;-71
2022/06/09 09:57:28;;;;;;;7.73;2.07;;;;;;;19.10;56.42;97971.94;5015532;28;20634;-70
2022/06/09 09:59:57;;;;;;;3.47;2.07;;;;;;;18.38;58.76;97977.75;5015408;28;20233;-70
2022/06/09 10:08:38;;;;;;;10.37;6.10;;;;;;;18.01;60.43;97985.25;5015289;28;20220;-70
2022/06/09 10:13:54;;;;;;;5.70;1.47;;;;;;;19.06;56.83;97985.19;5015435;28;20251;-70
2022/06/09 10:16:22;;;;;;;3.57;1.87;;;;;;;19.19;58.48;97984.56;5015147;28;20206;-71
2022/06/09 10:18:54;;;;;;;5.07;1.20;;;;;;;19.30;53.22;97982.66;5014977;28;20226;-70
2022/06/09 10:21:20;;;;;;;4.80;1.60;;;;;;;19.07;53.73;97986.78;5015002;28;20199;-71
2022/06/09 10:23:55;;;;;;;2.17;1.07;;;;;;;19.28;54.15;97982.16;5014850;28;20213;-70
2022/06/09 10:26:34;;;;;;;2.43;1.03;;;;;;;19.28;53.50;97984.84;5014993;28;20292;-70
2022/06/09 10:29:20;;;;;;;4.90;1.40;;;;;;;19.39;54.34;97983.72;5014968;28;20226;-70
2022/06/09 10:32:03;;;;;;;4.93;1.23;;;;;;;19.84;52.90;97982.69;5014974;28;20191;-70
2022/06/09 10:35:06;;;;;;;3.80;1.33;;;;;;;19.86;53.13;97984.00;5015230;28;20202;-71
2022/06/09 10:37:47;;;;;;;3.10;1.30;;;;;;;19.76;54.23;97981.34;5014041;28;20669;-70
2022/06/09 10:40:24;;;;;;;4.27;1.43;;;;;;;19.20;54.85;97986.19;5014719;28;20226;-69
2022/06/09 10:42:57;;;;;;;3.97;1.30;;;;;;;18.98;56.71;97982.22;5014869;28;20558;-71
2022/06/09 10:45:35;;;;;;;4.53;1.30;;;;;;;18.89;58.46;97989.25;5014521;28;20225;-69
2022/06/09 10:57:50;;;;;;;5.50;1.40;;;;;;;19.22;55.55;98000.22;5014306;28;20201;-71
2022/06/09 11:00:28;;;;;;;3.73;1.10;;;;;;;19.26;55.38;97987.81;5014105;28;20693;-71
2022/06/09 11:02:57;;;;;;;4.23;1.20;;;;;;;18.95;57.40;97991.66;5013644;28;20191;-71
2022/06/09 11:05:53;;;;;;;2.97;1.20;;;;;;;18.62;57.22;98008.44;5014449;28;20297;-71
2022/06/09 11:08:57;;;;;;;3.77;1.30;;;;;;;18.33;58.47;98001.97;5014142;28;20230;-71
2022/06/09 11:11:44;;;;;;;2.80;0.90;;;;;;;19.05;57.53;98009.69;5014457;28;20648;-71
2022/06/09 11:14:15;;;;;;;4.30;1.17;;;;;;;19.29;57.73;98003.44;5014027;28;20646;-71
2022/06/09 11:17:06;;;;;;;4.57;1.30;;;;;;;19.43;54.57;98009.03;5013505;28;20190;-72
2022/06/09 11:20:01;;;;;;;6.57;1.60;;;;;;;19.39;56.18;98007.97;5013519;28;20244;-72
2022/06/09 11:22:41;;;;;;;3.80;1.20;;;;;;;19.63;55.77;98006.25;5008085;28;20202;-71
2022/06/09 11:25:45;;;;;;;2.43;1.07;;;;;;;19.49;55.07;98006.03;5013925;28;20202;-72
2022/06/09 11:28:30;;;;;;;3.70;1.17;;;;;;;19.39;54.49;98000.72;5013692;28;20230;-71
2022/06/09 11:31:18;;;;;;;3.13;1.00;;;;;;;19.34;52.85;98008.81;5013465;28;20298;-71
2022/06/09 11:33:54;;;;;;;3.27;1.27;;;;;;;19.45;53.69;97994.19;5012921;28;20229;-71
2022/06/09 11:36:38;;;;;;;5.57;1.40;;;;;;;19.14;55.47;98003.44;5014345;28;20238;-71
2022/06/09 11:39:23;;;;;;;3.70;1.33;;;;;;;19.21;53.08;98008.56;5012418;28;20696;-71
2022/06/09 11:42:03;;;;;;;2.67;1.33;;;;;;;18.94;54.93;98010.78;5012497;28;20191;-70
2022/06/09 11:44:35;;;;;;;3.40;1.30;;;;;;;18.71;55.95;98014.06;5013629;28;20641;-70
2022/06/09 11:47:06;;;;;;;3.37;1.43;;;;;;;18.62;56.94;98002.22;5013745;28;20198;-71
2022/06/09 11:49:37;;;;;;;3.43;1.20;;;;;;;18.29;57.11;98010.84;5012717;28;20305;-70
2022/06/09 11:52:07;;;;;;;3.27;1.27;;;;;;;18.26;57.80;98014.06;5012192;28;20669;-70
2022/06/09 11:54:49;;;;;;;4.40;1.30;;;;;;;18.07;56.20;98013.78;5013406;28;20245;-70
2022/06/09 11:57:32;;;;;;;3.73;1.33;;;;;;;18.54;57.85;98019.75;5013685;28;20566;-70
2022/06/09 12:00:24;;;;;;;2.97;1.20;;;;;;;18.93;57.38;98012.69;5013193;28;20223;-70
2022/06/09 12:02:53;;;;;;;3.77;1.43;;;;;;;19.31;54.44;98012.06;5013524;28;20226;-71
2022/06/09 12:05:23;;;;;;;3.40;1.20;;;;;;;19.28;53.20;98022.59;5013563;28;20297;-70
2022/06/09 12:08:05;;;;;;;4.43;1.17;;;;;;;18.99;55.81;98024.25;5013235;28;20227;-71
2022/06/09 12:10:50;;;;;;;3.97;1.20;;;;;;;18.74;55.79;98019.69;5013547;28;20225;-70
2022/06/09 12:13:18;;;;;;;3.03;1.03;;;;;;;18.46;53.58;98022.97;5013244;28;20194;-70
2022/06/09 12:16:02;;;;;;;3.87;1.20;;;;;;;18.73;54.03;98033.47;5013244;28;20209;-71
2022/06/09 12:18:36;;;;;;;4.67;1.23;;;;;;;18.96;53.04;98022.91;5013517;28;20230;-70
2022/06/09 12:21:33;;;;;;;3.93;1.10;;;;;;;19.31;53.49;98041.72;5013080;28;20716;-71
2022/06/09 12:24:15;;;;;;;2.90;0.87;;;;;;;19.24;48.58;98030.44;5011848;28;20210;-70
2022/06/09 12:26:42;;;;;;;3.93;1.10;;;;;;;19.41;49.76;98022.78;5013261;28;20213;-71
2022/06/09 12:29:37;;;;;;;6.20;1.17;;;;;;;19.34;49.55;98024.16;5013209;28;20317;-68
2022/06/09 12:32:09;;;;;;;2.77;0.90;;;;;;;19.36;50.49;98024.72;5013023;28;20600;-69
2022/06/09 12:34:47;;;;;;;3.57;1.43;;;;;;;19.73;48.73;98031.28;5012800;28;20636;-68
2022/06/09 12:37:21;;;;;;;4.40;1.27;;;;;;;19.77;50.04;98039.63;5013032;28;20600;-68
2022/06/09 12:39:52;;;;;;;3.33;1.20;;;;;;;19.73;50.20;98039.38;5012839;28;20677;-69
2022/06/09 12:42:46;;;;;;;2.37;1.10;;;;;;;19.83;52.06;98043.09;5013137;28;20201;-69
2022/06/09 12:45:21;;;;;;;3.43;1.30;;;;;;;20.31;49.22;98034.19;5013426;28;20213;-69
2022/06/09 12:48:13;;;;;;;3.33;1.20;;;;;;;20.68;48.53;98037.13;5012751;28;20756;-68
2022/06/09 12:50:44;;;;;;;4.37;1.37;;;;;;;20.55;47.09;98037.78;5012428;28;20187;-68
2022/06/09 12:53:32;;;;;;;3.67;1.17;;;;;;;20.31;47.56;98040.41;5011531;28;20289;-68
2022/06/09 12:56:05;;;;;;;6.43;1.40;;;;;;;20.41;47.74;98047.63;5012625;28;20190;-68
2022/06/09 12:58:45;;;;;;;2.20;1.03;;;;;;;20.39;48.85;98042.50;5012577;28;20230;-68
2022/06/09 13:01:23;;;;;;;3.07;1.10;;;;;;;20.67;46.84;98041.72;5015179;28;20191;-68
2022/06/09 13:04:02;;;;;;;2.50;1.30;;;;;;;20.56;47.95;98042.91;5016548;28;20191;-68
2022/06/09 13:06:41;;;;;;;3.67;1.20;;;;;;;20.29;48.21;98042.56;5016947;28;20301;-69
2022/06/09 13:09:23;;;;;;;2.53;1.10;;;;;;;20.48;45.88;98048.13;5015965;28;20727;-68
2022/06/09 13:14:41;;;;;;;2.93;1.20;;;;;;;20.17;47.35;98047.50;5015932;28;20186;-67
2022/06/09 13:17:29;;;;;;;1.97;1.00;;;;;;;19.87;47.16;98068.44;5016354;28;20280;-67
2022/06/09 13:20:06;;;;;;;4.40;1.17;;;;;;;20.25;48.91;98057.72;5016360;28;20701;-67
2022/06/09 13:22:34;;;;;;;2.67;1.30;;;;;;;20.27;47.18;98054.72;5015344;28;20281;-69
2022/06/09 13:25:03;;;;;;;3.23;1.17;;;;;;;20.43;46.05;98058.97;5014852;28;20225;-68
2022/06/09 13:27:32;;;;;;;3.47;1.47;;;;;;;20.30;48.14;98067.69;5016054;28;20669;-67
2022/06/09 13:30:04;;;;;;;3.37;1.27;;;;;;;20.10;47.94;98071.31;5016065;28;20203;-67
2022/06/09 13:32:44;;;;;;;4.57;1.30;;;;;;;19.89;47.49;98063.59;5016108;28;20264;-67
2022/06/09 13:35:26;;;;;;;3.80;1.57;;;;;;;19.72;46.12;98071.22;5015765;28;20281;-68
2022/06/09 13:38:04;;;;;;;5.13;1.23;;;;;;;19.53;48.61;98079.91;5015912;28;20226;-67